createdAt,value
2023-04-06T00:01:17.799Z,1009.07
2023-04-06T00:04:17.811Z,1009.07
2023-04-06T00:07:17.809Z,1009.06
2023-04-06T00:10:17.800Z,1009.09
2023-04-06T00:13:17.796Z,1009.02
2023-04-06T00:16:17.822Z,1009.03
2023-04-06T00:19:17.792Z,1009.01
2023-04-06T00:22:17.802Z,1009.01
2023-04-06T00:25:17.813Z,1009.01
2023-04-06T00:28:17.805Z,1008.94
2023-04-06T00:31:17.792Z,1008.95
2023-04-06T00:34:17.789Z,1008.92
2023-04-06T00:37:17.807Z,1008.84
2023-04-06T00:40:17.794Z,1008.84
2023-04-06T00:43:17.808Z,1008.78
2023-04-06T00:46:17.822Z,1008.8
2023-04-06T00:49:17.797Z,1008.79
2023-04-06T00:52:17.797Z,1008.78
2023-04-06T00:55:17.805Z,1008.76
2023-04-06T00:58:17.786Z,1008.65
2023-04-06T01:01:17.813Z,1008.63
2023-04-06T01:04:17.790Z,1008.59
2023-04-06T01:07:17.787Z,1008.55
2023-04-06T01:10:17.795Z,1008.53
2023-04-06T01:13:17.787Z,1008.55
2023-04-06T01:16:17.815Z,1008.53
2023-04-06T01:19:17.796Z,1008.54
2023-04-06T01:22:17.785Z,1008.5
2023-04-06T01:25:17.799Z,1008.52
2023-04-06T01:28:17.829Z,1008.51
2023-04-06T01:31:17.824Z,1008.5
2023-04-06T01:34:17.783Z,1008.43
2023-04-06T01:37:17.793Z,1008.38
2023-04-06T01:40:17.785Z,1008.35
2023-04-06T01:43:17.785Z,1008.34
2023-04-06T01:46:17.824Z,1008.36
2023-04-06T01:49:17.784Z,1008.36
2023-04-06T01:52:17.785Z,1008.39
2023-04-06T01:55:17.788Z,1008.37
2023-04-06T01:58:17.794Z,1008.35
2023-04-06T02:01:17.808Z,1008.34
2023-04-06T02:04:17.770Z,1008.34
2023-04-06T02:07:17.777Z,1008.31
2023-04-06T02:10:17.773Z,1008.29
2023-04-06T02:13:17.775Z,1008.3
2023-04-06T02:16:17.791Z,1008.32
2023-04-06T02:19:17.777Z,1008.33
2023-04-06T02:22:17.774Z,1008.33
2023-04-06T02:25:17.773Z,1008.36
2023-04-06T02:28:17.772Z,1008.34
2023-04-06T02:31:17.771Z,1008.35
2023-04-06T02:34:17.776Z,1008.33
2023-04-06T02:37:17.767Z,1008.27
2023-04-06T02:40:17.780Z,1008.26
2023-04-06T02:43:17.773Z,1008.2
2023-04-06T02:46:17.784Z,1008.26
2023-04-06T02:49:17.768Z,1008.22
2023-04-06T02:52:17.761Z,1008.25
2023-04-06T02:55:18.028Z,1008.26
2023-04-06T02:58:17.763Z,1008.28
2023-04-06T03:01:17.793Z,1008.23
2023-04-06T03:04:17.779Z,1008.25
2023-04-06T03:07:17.756Z,1008.23
2023-04-06T03:10:17.765Z,1008.25
2023-04-06T03:13:17.768Z,1008.24
2023-04-06T03:16:17.800Z,1008.2
2023-04-06T03:19:17.766Z,1008.2
2023-04-06T03:22:17.758Z,1008.23
2023-04-06T03:25:17.758Z,1008.23
2023-04-06T03:28:17.757Z,1008.25
2023-04-06T03:31:17.774Z,1008.27
2023-04-06T03:34:17.757Z,1008.29
2023-04-06T03:37:17.756Z,1008.32
2023-04-06T03:40:17.755Z,1008.32
2023-04-06T03:43:17.761Z,1008.28
2023-04-06T03:46:17.789Z,1008.27
2023-04-06T03:49:17.756Z,1008.27
2023-04-06T03:52:17.759Z,1008.28
2023-04-06T03:55:17.750Z,1008.29
2023-04-06T03:58:17.766Z,1008.31
2023-04-06T04:01:17.745Z,1008.3
2023-04-06T04:04:17.757Z,1008.36
2023-04-06T04:07:17.752Z,1008.38
2023-04-06T04:10:17.741Z,1008.37
2023-04-06T04:13:17.752Z,1008.37
2023-04-06T04:16:17.764Z,1008.39
2023-04-06T04:19:17.748Z,1008.48
2023-04-06T04:22:17.737Z,1008.46
2023-04-06T04:25:17.739Z,1008.5
2023-04-06T04:28:17.740Z,1008.52
2023-04-06T04:31:17.747Z,1008.55
2023-04-06T04:34:17.753Z,1008.57
2023-04-06T04:37:17.749Z,1008.59
2023-04-06T04:40:17.756Z,1008.59
2023-04-06T04:43:17.750Z,1008.58
2023-04-06T04:46:17.796Z,1008.56
2023-04-06T04:49:17.786Z,1008.6
2023-04-06T04:52:17.785Z,1008.6
2023-04-06T04:55:17.795Z,1008.61
2023-04-06T04:58:17.786Z,1008.6
2023-04-06T05:01:17.809Z,1008.58
2023-04-06T05:04:17.782Z,1008.6
2023-04-06T05:07:17.784Z,1008.64
2023-04-06T05:10:17.790Z,1008.66
2023-04-06T05:13:17.798Z,1008.65
2023-04-06T05:16:17.865Z,1008.64
2023-04-06T05:19:17.786Z,1008.64
2023-04-06T05:22:17.782Z,1008.64
2023-04-06T05:25:17.775Z,1008.69
2023-04-06T05:28:17.787Z,1008.69
2023-04-06T05:31:17.830Z,1008.66
2023-04-06T05:34:17.785Z,1008.69
2023-04-06T05:37:17.783Z,1008.71
2023-04-06T05:40:17.779Z,1008.75
2023-04-06T05:43:17.767Z,1008.79
2023-04-06T05:46:17.775Z,1008.8
2023-04-06T05:49:17.762Z,1008.82
2023-04-06T05:52:17.762Z,1008.83
2023-04-06T05:55:17.772Z,1008.81
2023-04-06T05:58:17.765Z,1008.79
2023-04-06T06:01:17.766Z,1008.84
2023-04-06T06:04:17.751Z,1008.88
2023-04-06T06:07:17.754Z,1008.86
2023-04-06T06:10:17.749Z,1008.86
2023-04-06T06:13:17.761Z,1008.84
2023-04-06T06:16:17.774Z,1008.87
2023-04-06T06:19:17.755Z,1008.87
2023-04-06T06:22:17.742Z,1008.9
2023-04-06T06:25:17.738Z,1008.9
2023-04-06T06:28:17.739Z,1008.86
2023-04-06T06:31:17.759Z,1008.87
2023-04-06T06:34:17.807Z,1008.88
2023-04-06T06:37:17.811Z,1008.92
2023-04-06T06:40:17.822Z,1008.9
2023-04-06T06:43:17.823Z,1008.92
2023-04-06T06:46:17.890Z,1008.94
2023-04-06T06:49:17.822Z,1008.93
2023-04-06T06:52:17.810Z,1008.86
2023-04-06T06:55:17.829Z,1008.87
2023-04-06T06:58:17.803Z,1008.94
2023-04-06T07:01:17.850Z,1008.94
2023-04-06T07:04:17.806Z,1008.91
2023-04-06T07:07:17.808Z,1008.88
2023-04-06T07:10:17.800Z,1008.86
2023-04-06T07:13:17.816Z,1008.83
2023-04-06T07:16:17.810Z,1008.87
2023-04-06T07:19:17.792Z,1008.81
2023-04-06T07:22:17.831Z,1008.78
2023-04-06T07:25:17.794Z,1008.82
2023-04-06T07:28:17.786Z,1008.85
2023-04-06T07:31:17.790Z,1008.84
2023-04-06T07:34:17.782Z,1008.88
2023-04-06T07:37:17.802Z,1008.9
2023-04-06T07:40:17.792Z,1008.92
2023-04-06T07:43:17.786Z,1008.92
2023-04-06T07:46:17.796Z,1008.92
2023-04-06T07:49:17.778Z,1008.9
2023-04-06T07:52:17.890Z,1008.89
2023-04-06T07:55:17.779Z,1008.86
2023-04-06T07:58:17.782Z,1008.85
2023-04-06T08:01:17.816Z,1008.87
2023-04-06T08:04:17.907Z,1008.86
2023-04-06T08:07:17.772Z,1008.9
2023-04-06T08:10:17.777Z,1008.88
2023-04-06T08:13:17.773Z,1008.87
2023-04-06T08:16:17.827Z,1008.88
2023-04-06T08:19:17.771Z,1008.9
2023-04-06T08:22:17.770Z,1008.86
2023-04-06T08:25:17.772Z,1008.87
2023-04-06T08:28:17.775Z,1008.9
2023-04-06T08:31:17.799Z,1008.89
2023-04-06T08:34:17.762Z,1008.88
2023-04-06T08:37:17.766Z,1008.87
2023-04-06T08:40:17.761Z,1008.85
2023-04-06T08:43:17.763Z,1008.8
2023-04-06T08:46:17.772Z,1008.8
2023-04-06T08:49:17.756Z,1008.8
2023-04-06T08:52:17.757Z,1008.8
2023-04-06T08:55:17.757Z,1008.77
2023-04-06T08:58:24.475Z,1008.77
2023-04-06T09:01:17.783Z,1008.75
2023-04-06T09:04:18.228Z,1008.73
2023-04-06T09:07:17.760Z,1008.72
2023-04-06T09:10:17.748Z,1008.7
2023-04-06T09:13:17.754Z,1008.71
2023-04-06T09:16:17.838Z,1008.7
2023-04-06T09:19:17.748Z,1008.7
2023-04-06T09:22:17.751Z,1008.72
2023-04-06T09:25:17.753Z,1008.7
2023-04-06T09:28:17.755Z,1008.64
2023-04-06T09:31:17.793Z,1008.64
2023-04-06T09:34:17.755Z,1008.62
2023-04-06T09:37:17.760Z,1008.55
2023-04-06T09:40:17.757Z,1008.49
2023-04-06T09:43:17.756Z,1008.5
2023-04-06T09:46:17.763Z,1008.48
2023-04-06T09:49:17.752Z,1008.43
2023-04-06T09:52:17.756Z,1008.37
2023-04-06T09:55:17.750Z,1008.42
2023-04-06T09:58:17.837Z,1008.38
2023-04-06T10:01:17.799Z,1008.36
2023-04-06T10:04:17.802Z,1008.37
2023-04-06T10:07:17.741Z,1008.37
2023-04-06T10:10:17.809Z,1008.36
2023-04-06T10:13:17.744Z,1008.32
2023-04-06T10:16:17.748Z,1008.27
2023-04-06T10:19:17.736Z,1008.29
2023-04-06T10:22:17.735Z,1008.33
2023-04-06T10:25:17.734Z,1008.26
2023-04-06T10:28:17.735Z,1008.24
2023-04-06T10:31:17.748Z,1008.24
2023-04-06T10:34:17.749Z,1008.19
2023-04-06T10:37:17.738Z,1008.21
2023-04-06T10:40:17.824Z,1008.13
2023-04-06T10:43:17.767Z,1008.19
2023-04-06T10:46:17.794Z,1008.18
2023-04-06T10:49:17.746Z,1008.15
2023-04-06T10:52:17.745Z,1008.12
2023-04-06T10:55:17.746Z,1008.04
2023-04-06T10:58:17.736Z,1007.94
2023-04-06T11:01:17.815Z,1007.92
2023-04-06T11:04:17.809Z,1007.88
2023-04-06T11:07:17.732Z,1007.87
2023-04-06T11:10:19.387Z,1007.89
2023-04-06T11:13:17.727Z,1007.86
2023-04-06T11:16:17.738Z,1007.85
2023-04-06T11:19:17.723Z,1007.83
2023-04-06T11:22:17.728Z,1007.81
2023-04-06T11:25:17.724Z,1007.82
2023-04-06T11:28:17.739Z,1007.73
2023-04-06T11:31:17.797Z,1007.69
2023-04-06T11:34:17.740Z,1007.64
2023-04-06T11:37:17.755Z,1007.61
2023-04-06T11:40:17.750Z,1007.65
2023-04-06T11:43:17.747Z,1007.56
2023-04-06T11:46:17.751Z,1007.54
2023-04-06T11:49:17.789Z,1007.49
2023-04-06T11:52:17.799Z,1007.46
2023-04-06T11:55:17.755Z,1007.46
2023-04-06T11:58:17.735Z,1007.42
2023-04-06T12:01:17.741Z,1007.35
2023-04-06T12:04:17.766Z,1007.34
2023-04-06T12:07:17.747Z,1007.4
2023-04-06T12:10:17.744Z,1007.34
2023-04-06T12:13:17.733Z,1007.34
2023-04-06T12:16:17.805Z,1007.3
2023-04-06T12:19:17.731Z,1007.27
2023-04-06T12:22:17.761Z,1007.24
2023-04-06T12:25:17.745Z,1007.27
2023-04-06T12:28:17.725Z,1007.23
2023-04-06T12:31:17.767Z,1007.23
2023-04-06T12:34:17.728Z,1007.18
2023-04-06T12:37:17.729Z,1007.15
2023-04-06T12:40:17.714Z,1007.11
2023-04-06T12:43:17.719Z,1007.07
2023-04-06T12:46:17.721Z,1007.07
2023-04-06T12:49:17.729Z,1007.06
2023-04-06T12:52:17.736Z,1007.03
2023-04-06T12:55:17.718Z,1007.04
2023-04-06T12:58:17.712Z,1007.02
2023-04-06T13:01:17.755Z,1007.01
2023-04-06T13:04:17.710Z,1007.03
2023-04-06T13:07:17.703Z,1006.98
2023-04-06T13:10:17.716Z,1007
2023-04-06T13:13:17.782Z,1006.99
2023-04-06T13:16:17.806Z,1006.91
2023-04-06T13:19:17.783Z,1006.84
2023-04-06T13:22:17.777Z,1006.86
2023-04-06T13:25:17.775Z,1006.88
2023-04-06T13:28:17.776Z,1006.78
2023-04-06T13:31:17.803Z,1006.77
2023-04-06T13:34:17.776Z,1006.77
2023-04-06T13:37:17.772Z,1006.74
2023-04-06T13:40:17.774Z,1006.75
2023-04-06T13:43:17.784Z,1006.7
2023-04-06T13:46:17.875Z,1006.67
2023-04-06T13:49:17.771Z,1006.65
2023-04-06T13:52:17.911Z,1006.61
2023-04-06T13:55:18.028Z,1006.58
2023-04-06T13:58:17.767Z,1006.58
2023-04-06T14:01:17.876Z,1006.63
2023-04-06T14:04:17.768Z,1006.64
2023-04-06T14:07:17.761Z,1006.62
2023-04-06T14:10:17.760Z,1006.59
2023-04-06T14:13:17.770Z,1006.53
2023-04-06T14:16:17.785Z,1006.53
2023-04-06T14:19:17.755Z,1006.55
2023-04-06T14:22:17.757Z,1006.54
2023-04-06T14:25:17.749Z,1006.5
2023-04-06T14:28:17.754Z,1006.5
2023-04-06T14:31:17.780Z,1006.48
2023-04-06T14:34:17.752Z,1006.54
2023-04-06T14:37:17.838Z,1006.53
2023-04-06T14:40:17.842Z,1006.51
2023-04-06T14:43:17.861Z,1006.5
2023-04-06T14:46:17.907Z,1006.47
2023-04-06T14:49:17.842Z,1006.43
2023-04-06T14:52:17.843Z,1006.4
2023-04-06T14:55:17.848Z,1006.38
2023-04-06T14:58:17.849Z,1006.43
2023-04-06T15:01:17.866Z,1006.38
2023-04-06T15:04:17.892Z,1006.37
2023-04-06T15:07:17.825Z,1006.38
2023-04-06T15:10:17.831Z,1006.36
2023-04-06T15:13:17.833Z,1006.36
2023-04-06T15:16:17.857Z,1006.36
2023-04-06T15:19:17.842Z,1006.4
2023-04-06T15:22:17.825Z,1006.37
2023-04-06T15:25:17.832Z,1006.36
2023-04-06T15:28:17.821Z,1006.35
2023-04-06T15:31:24.420Z,1006.32
2023-04-06T15:34:17.818Z,1006.34
2023-04-06T15:37:17.813Z,1006.28
2023-04-06T15:40:17.816Z,1006.28
2023-04-06T15:43:17.823Z,1006.29
2023-04-06T15:46:17.817Z,1006.27
2023-04-06T15:49:17.818Z,1006.27
2023-04-06T15:52:17.839Z,1006.26
2023-04-06T15:55:17.816Z,1006.26
2023-04-06T15:58:17.810Z,1006.24
2023-04-06T16:01:17.850Z,1006.3
2023-04-06T16:04:17.933Z,1006.27
2023-04-06T16:07:17.858Z,1006.31
2023-04-06T16:10:17.883Z,1006.27
2023-04-06T16:13:17.877Z,1006.29
2023-04-06T16:16:17.895Z,1006.3
2023-04-06T16:19:18.514Z,1006.26
2023-04-06T16:22:17.852Z,1006.32
2023-04-06T16:25:17.851Z,1006.35
2023-04-06T16:28:17.858Z,1006.5
2023-04-06T16:31:17.858Z,1006.42
2023-04-06T16:34:17.857Z,1006.35
2023-04-06T16:37:17.844Z,1006.34
2023-04-06T16:40:17.847Z,1006.35
2023-04-06T16:43:17.852Z,1006.39
2023-04-06T16:46:18.239Z,1006.38
2023-04-06T16:49:18.120Z,1006.38
2023-04-06T16:52:17.853Z,1006.38
2023-04-06T16:55:17.850Z,1006.37
2023-04-06T16:58:17.843Z,1006.34
2023-04-06T17:01:17.867Z,1006.33
2023-04-06T17:04:17.870Z,1006.37
2023-04-06T17:07:17.855Z,1006.39
2023-04-06T17:10:18.568Z,1006.37
2023-04-06T17:13:17.839Z,1006.38
2023-04-06T17:16:17.838Z,1006.33
2023-04-06T17:19:17.836Z,1006.33
2023-04-06T17:22:17.837Z,1006.36
2023-04-06T17:25:17.830Z,1006.31
2023-04-06T17:28:17.832Z,1006.37
2023-04-06T17:31:17.875Z,1006.33
2023-04-06T17:34:17.901Z,1006.4
2023-04-06T17:37:17.844Z,1006.42
2023-04-06T17:40:17.830Z,1006.38
2023-04-06T17:43:17.826Z,1006.49
2023-04-06T17:46:17.950Z,1006.49
2023-04-06T17:49:17.927Z,1006.54
2023-04-06T17:52:17.918Z,1006.6
2023-04-06T17:55:17.943Z,1006.55
2023-04-06T17:58:17.910Z,1006.64
2023-04-06T18:01:17.944Z,1006.64
2023-04-06T18:04:17.943Z,1006.69
2023-04-06T18:07:17.909Z,1006.74
2023-04-06T18:10:17.913Z,1006.8
2023-04-06T18:13:17.932Z,1006.8
2023-04-06T18:16:17.964Z,1006.88
2023-04-06T18:19:17.910Z,1006.9
2023-04-06T18:22:17.910Z,1006.95
2023-04-06T18:25:17.907Z,1006.99
2023-04-06T18:28:17.915Z,1006.96
2023-04-06T18:31:17.909Z,1007.04
2023-04-06T18:34:17.901Z,1007.05
2023-04-06T18:37:17.907Z,1007.06
2023-04-06T18:40:17.906Z,1007.08
2023-04-06T18:43:17.898Z,1007.13
2023-04-06T18:46:17.894Z,1007.15
2023-04-06T18:49:17.904Z,1007.11
2023-04-06T18:52:17.901Z,1007.17
2023-04-06T18:55:17.896Z,1007.28
2023-04-06T18:58:17.914Z,1007.33
2023-04-06T19:01:17.890Z,1007.34
2023-04-06T19:04:18.217Z,1007.4
2023-04-06T19:07:17.921Z,1007.47
2023-04-06T19:10:17.889Z,1007.49
2023-04-06T19:13:17.900Z,1007.47
2023-04-06T19:16:18.058Z,1007.51
2023-04-06T19:19:17.899Z,1007.56
2023-04-06T19:22:17.898Z,1007.55
2023-04-06T19:25:17.897Z,1007.56
2023-04-06T19:28:17.897Z,1007.54
2023-04-06T19:31:17.885Z,1007.54
2023-04-06T19:34:17.900Z,1007.52
2023-04-06T19:37:17.918Z,1007.56
2023-04-06T19:40:17.884Z,1007.59
2023-04-06T19:43:17.881Z,1007.56
2023-04-06T19:46:17.935Z,1007.59
2023-04-06T19:49:17.888Z,1007.61
2023-04-06T19:52:17.911Z,1007.59
2023-04-06T19:55:17.889Z,1007.56
2023-04-06T19:58:17.892Z,1007.6
2023-04-06T20:01:17.888Z,1007.6
2023-04-06T20:04:17.999Z,1007.61
2023-04-06T20:07:17.875Z,1007.63
2023-04-06T20:10:17.883Z,1007.57
2023-04-06T20:13:17.873Z,1007.61
2023-04-06T20:16:17.946Z,1007.61
2023-04-06T20:19:17.943Z,1007.67
2023-04-06T20:22:17.884Z,1007.68
2023-04-06T20:25:17.929Z,1007.61
2023-04-06T20:28:17.873Z,1007.63
2023-04-06T20:31:17.878Z,1007.63
2023-04-06T20:34:18.056Z,1007.58
2023-04-06T20:37:17.876Z,1007.61
2023-04-06T20:40:17.879Z,1007.61
2023-04-06T20:43:17.876Z,1007.58
2023-04-06T20:46:17.951Z,1007.55
2023-04-06T20:49:17.882Z,1007.56
2023-04-06T20:52:17.871Z,1007.54
2023-04-06T20:55:17.867Z,1007.56
2023-04-06T20:58:17.874Z,1007.54
2023-04-06T21:01:17.913Z,1007.55
2023-04-06T21:04:18.155Z,1007.58
2023-04-06T21:07:17.867Z,1007.55
2023-04-06T21:10:17.861Z,1007.55
2023-04-06T21:13:17.865Z,1007.5
2023-04-06T21:16:17.921Z,1007.46
2023-04-06T21:19:17.861Z,1007.41
2023-04-06T21:22:17.860Z,1007.38
2023-04-06T21:25:17.862Z,1007.34
2023-04-06T21:28:17.857Z,1007.32
2023-04-06T21:31:17.897Z,1007.27
2023-04-06T21:34:18.090Z,1007.25
2023-04-06T21:37:19.239Z,1007.24
2023-04-06T21:40:17.851Z,1007.21
2023-04-06T21:43:17.854Z,1007.2
2023-04-06T21:46:17.861Z,1007.19
2023-04-06T21:49:17.883Z,1007.17
2023-04-06T21:52:17.838Z,1007.12
2023-04-06T21:55:17.856Z,1007.14
2023-04-06T21:58:17.840Z,1007.08
2023-04-06T22:01:17.948Z,1007.08
2023-04-06T22:04:18.070Z,1007.06
2023-04-06T22:07:17.837Z,1006.96
2023-04-06T22:10:17.835Z,1006.96
2023-04-06T22:13:17.832Z,1006.93
2023-04-06T22:16:17.887Z,1006.94
2023-04-06T22:19:17.934Z,1006.88
2023-04-06T22:22:17.836Z,1006.89
2023-04-06T22:25:17.828Z,1006.85
2023-04-06T22:28:17.843Z,1006.83
2023-04-06T22:31:17.825Z,1006.76
2023-04-06T22:34:18.147Z,1006.77
2023-04-06T22:37:17.826Z,1006.75
2023-04-06T22:40:17.832Z,1006.74
2023-04-06T22:43:17.824Z,1006.72
2023-04-06T22:46:17.824Z,1006.67
2023-04-06T22:49:17.832Z,1006.65
2023-04-06T22:52:17.837Z,1006.65
2023-04-06T22:55:17.822Z,1006.61
2023-04-06T22:58:17.831Z,1006.64
2023-04-06T23:01:17.964Z,1006.59
2023-04-06T23:04:18.205Z,1006.54
2023-04-06T23:07:17.818Z,1006.51
2023-04-06T23:10:17.827Z,1006.49
2023-04-06T23:13:17.824Z,1006.44
2023-04-06T23:16:17.827Z,1006.41
2023-04-06T23:19:17.820Z,1006.37
2023-04-06T23:22:17.815Z,1006.37
2023-04-06T23:25:17.840Z,1006.35
2023-04-06T23:28:17.815Z,1006.38
2023-04-06T23:31:17.820Z,1006.37
2023-04-06T23:34:17.827Z,1006.37
2023-04-06T23:37:17.829Z,1006.36
2023-04-06T23:40:17.820Z,1006.36
2023-04-06T23:43:17.811Z,1006.3
2023-04-06T23:46:17.820Z,1006.26
2023-04-06T23:49:17.851Z,1006.24
2023-04-06T23:52:17.846Z,1006.2
2023-04-06T23:55:17.809Z,1006.13
2023-04-06T23:58:17.815Z,1006.12
